createdAt,value
2023-11-09T00:02:26.450Z,1.09
2023-11-09T00:04:53.414Z,1.00
2023-11-09T00:07:20.641Z,1.09
2023-11-09T00:09:47.333Z,1.06
2023-11-09T00:12:14.059Z,1.22
2023-11-09T00:14:41.200Z,1.33
2023-11-09T00:17:08.025Z,1.37
2023-11-09T00:19:35.047Z,1.35
2023-11-09T00:22:01.774Z,1.35
2023-11-09T00:24:28.506Z,1.29
2023-11-09T00:26:55.385Z,1.09
2023-11-09T00:29:22.106Z,1.02
2023-11-09T00:31:48.929Z,0.98
2023-11-09T00:34:16.085Z,0.91
2023-11-09T00:36:43.693Z,0.86
2023-11-09T00:39:13.460Z,0.84
2023-11-09T00:41:42.813Z,0.78
2023-11-09T00:44:10.883Z,0.81
2023-11-09T00:46:37.629Z,0.86
2023-11-09T00:49:04.399Z,0.87
2023-11-09T00:51:31.715Z,0.80
2023-11-09T00:53:58.692Z,0.81
2023-11-09T00:56:25.655Z,0.74
2023-11-09T00:58:52.362Z,0.75
2023-11-09T01:01:19.123Z,0.77
2023-11-09T01:03:46.008Z,0.72
2023-11-09T01:06:12.794Z,0.67
2023-11-09T01:08:39.569Z,0.66
2023-11-09T01:11:07.419Z,0.64
2023-11-09T01:13:37.380Z,0.62
2023-11-09T01:16:04.847Z,0.58
2023-11-09T01:18:31.623Z,0.57
2023-11-09T01:20:58.564Z,0.59
2023-11-09T01:23:27.196Z,0.45
2023-11-09T01:25:53.873Z,0.48
2023-11-09T01:28:20.574Z,0.42
2023-11-09T01:30:48.247Z,0.27
2023-11-09T01:33:15.172Z,0.35
2023-11-09T01:35:42.015Z,0.36
2023-11-09T01:38:08.797Z,0.17
2023-11-09T01:40:37.506Z,0.21
2023-11-09T01:43:11.509Z,0.19
2023-11-09T01:45:38.311Z,0.16
2023-11-09T01:48:05.979Z,0.29
2023-11-09T01:50:33.235Z,0.29
2023-11-09T01:53:01.869Z,0.42
2023-11-09T01:55:31.038Z,0.41
2023-11-09T01:57:57.918Z,0.62
2023-11-09T02:00:24.652Z,0.73
2023-11-09T02:02:54.475Z,0.74
2023-11-09T02:05:23.342Z,0.78
2023-11-09T02:07:53.583Z,0.74
2023-11-09T02:10:20.546Z,0.76
2023-11-09T02:12:47.305Z,0.63
2023-11-09T02:15:14.114Z,0.13
2023-11-09T02:17:41.735Z,0.16
2023-11-09T02:20:10.518Z,0.18
2023-11-09T02:22:39.180Z,0.11
2023-11-09T02:25:07.286Z,0.21
2023-11-09T02:27:35.745Z,0.23
2023-11-09T02:30:02.498Z,0.03
2023-11-09T02:32:29.279Z,0.04
2023-11-09T02:34:57.588Z,0.05
2023-11-09T02:37:25.460Z,0.12
2023-11-09T02:39:55.956Z,0.09
2023-11-09T02:42:23.302Z,0.11
2023-11-09T02:44:50.718Z,-0.12
2023-11-09T02:47:17.593Z,-0.10
2023-11-09T02:49:44.371Z,-0.04
2023-11-09T02:52:11.808Z,-0.01
2023-11-09T02:54:38.671Z,-0.15
2023-11-09T02:57:06.504Z,-0.13
2023-11-09T02:59:33.226Z,-0.19
2023-11-09T03:01:59.901Z,-0.22
2023-11-09T03:04:26.604Z,-0.21
2023-11-09T03:06:53.406Z,-0.21
2023-11-09T03:09:20.899Z,-0.23
2023-11-09T03:11:47.565Z,-0.38
2023-11-09T03:14:14.476Z,-0.42
2023-11-09T03:16:41.133Z,-0.27
2023-11-09T03:19:09.173Z,-0.24
2023-11-09T03:21:36.293Z,-0.30
2023-11-09T03:24:03.067Z,-0.27
2023-11-09T03:26:30.680Z,-0.24
2023-11-09T03:28:57.905Z,-0.21
2023-11-09T03:31:24.659Z,-0.16
2023-11-09T03:33:51.390Z,-0.18
2023-11-09T03:36:19.640Z,-0.23
2023-11-09T03:38:46.942Z,-0.56
2023-11-09T03:41:13.750Z,-0.44
2023-11-09T03:43:41.437Z,-0.68
2023-11-09T03:46:13.946Z,-0.76
2023-11-09T03:48:40.916Z,-0.53
2023-11-09T03:51:08.497Z,-0.61
2023-11-09T03:53:35.233Z,-0.54
2023-11-09T03:56:02.305Z,-0.46
2023-11-09T03:58:29.057Z,-0.43
2023-11-09T04:00:55.969Z,-0.39
2023-11-09T04:03:22.857Z,-0.36
2023-11-09T04:05:49.692Z,-0.32
2023-11-09T04:08:16.425Z,-0.34
2023-11-09T04:10:43.095Z,-0.37
2023-11-09T04:13:09.763Z,-0.47
2023-11-09T04:15:37.654Z,-0.40
2023-11-09T04:18:04.357Z,-0.29
2023-11-09T04:20:31.021Z,-0.25
2023-11-09T04:22:57.688Z,-0.23
2023-11-09T04:25:24.874Z,-0.20
2023-11-09T04:27:52.135Z,-0.22
2023-11-09T04:30:21.923Z,-0.21
2023-11-09T04:32:52.543Z,-0.18
2023-11-09T04:35:21.286Z,-0.21
2023-11-09T04:37:50.702Z,-0.26
2023-11-09T04:40:17.651Z,-0.24
2023-11-09T04:42:48.110Z,-0.22
2023-11-09T04:45:16.119Z,-0.21
2023-11-09T04:47:43.285Z,-0.17
2023-11-09T04:50:17.063Z,-0.14
2023-11-09T04:52:53.360Z,-0.09
2023-11-09T04:55:33.575Z,-0.11
2023-11-09T04:58:21.628Z,-0.08
2023-11-09T05:01:07.157Z,-0.11
2023-11-09T05:03:52.057Z,-0.10
2023-11-09T05:06:37.427Z,-0.08
2023-11-09T05:09:04.219Z,-0.11
2023-11-09T05:11:31.673Z,-0.34
2023-11-09T05:13:59.950Z,-0.36
2023-11-09T05:16:28.155Z,-0.27
2023-11-09T05:18:54.881Z,-0.24
2023-11-09T05:21:22.089Z,-0.27
2023-11-09T05:23:48.837Z,-0.30
2023-11-09T05:26:15.885Z,-0.26
2023-11-09T05:28:42.541Z,-0.22
2023-11-09T05:31:09.460Z,-0.18
2023-11-09T05:33:38.472Z,-0.14
2023-11-09T05:36:09.824Z,-0.16
2023-11-09T05:38:37.026Z,-0.20
2023-11-09T05:41:05.482Z,-0.27
2023-11-09T05:43:32.265Z,-0.23
2023-11-09T05:45:59.497Z,-0.25
2023-11-09T05:48:26.464Z,-0.28
2023-11-09T05:50:53.252Z,-0.27
2023-11-09T05:53:19.944Z,-0.24
2023-11-09T05:55:46.631Z,-0.28
2023-11-09T05:58:13.982Z,-0.29
2023-11-09T06:00:40.934Z,-0.47
2023-11-09T06:03:07.684Z,-0.26
2023-11-09T06:05:34.546Z,-0.17
2023-11-09T06:08:01.671Z,-0.08
2023-11-09T06:10:31.051Z,0.04
2023-11-09T06:12:58.096Z,0.10
2023-11-09T06:15:25.569Z,0.13
2023-11-09T06:17:53.458Z,0.12
2023-11-09T06:20:21.597Z,0.05
2023-11-09T06:22:49.801Z,0.07
2023-11-09T06:25:16.485Z,0.10
2023-11-09T06:27:43.185Z,0.16
2023-11-09T06:30:10.377Z,0.12
2023-11-09T06:32:37.404Z,0.21
2023-11-09T06:35:08.533Z,0.28
2023-11-09T06:37:35.428Z,0.34
2023-11-09T06:40:12.433Z,0.50
2023-11-09T06:42:40.470Z,0.57
2023-11-09T06:45:07.965Z,0.59
2023-11-09T06:47:36.481Z,0.72
2023-11-09T06:50:04.015Z,0.78
2023-11-09T06:52:30.927Z,0.75
2023-11-09T06:54:57.686Z,0.84
2023-11-09T06:57:24.444Z,1.00
2023-11-09T06:59:51.195Z,0.95
2023-11-09T07:02:18.749Z,0.92
2023-11-09T07:04:45.652Z,1.03
2023-11-09T07:07:12.514Z,1.18
2023-11-09T07:09:39.190Z,1.30
2023-11-09T07:12:06.471Z,1.25
2023-11-09T07:14:33.261Z,1.40
2023-11-09T07:16:59.973Z,1.58
2023-11-09T07:19:26.722Z,1.73
2023-11-09T07:21:54.520Z,1.81
2023-11-09T07:24:21.286Z,1.87
2023-11-09T07:26:48.732Z,2.00
2023-11-09T07:29:15.385Z,2.14
2023-11-09T07:31:42.228Z,2.30
2023-11-09T07:34:08.999Z,2.41
2023-11-09T07:36:35.740Z,2.57
2023-11-09T07:39:06.485Z,2.53
2023-11-09T07:41:33.732Z,2.68
2023-11-09T07:44:00.971Z,2.84
2023-11-09T07:46:28.126Z,2.44
2023-11-09T07:48:58.610Z,2.58
2023-11-09T07:51:25.380Z,2.72
2023-11-09T07:53:52.795Z,2.91
2023-11-09T07:56:19.479Z,3.07
2023-11-09T07:58:46.210Z,3.08
2023-11-09T08:01:13.009Z,3.22
2023-11-09T08:03:40.556Z,3.23
2023-11-09T08:06:08.578Z,3.16
2023-11-09T08:08:36.650Z,3.18
2023-11-09T08:11:03.606Z,3.76
2023-11-09T08:13:30.356Z,4.03
2023-11-09T08:15:59.996Z,4.59
2023-11-09T08:18:26.822Z,4.82
2023-11-09T08:20:53.934Z,4.93
2023-11-09T08:23:20.714Z,4.88
2023-11-09T08:25:47.431Z,4.94
2023-11-09T08:28:14.438Z,5.11
2023-11-09T08:30:41.244Z,5.22
2023-11-09T08:33:10.995Z,5.34
2023-11-09T08:35:39.092Z,5.57
2023-11-09T08:38:06.919Z,5.66
2023-11-09T08:40:34.074Z,5.72
2023-11-09T08:43:00.791Z,5.86
2023-11-09T08:45:30.781Z,5.99
2023-11-09T08:47:58.218Z,6.12
2023-11-09T08:50:26.244Z,6.29
2023-11-09T08:52:55.081Z,6.29
2023-11-09T08:55:22.006Z,6.34
2023-11-09T08:57:48.676Z,6.36
2023-11-09T09:00:17.623Z,6.38
2023-11-09T09:02:52.417Z,6.43
2023-11-09T09:05:20.789Z,6.45
2023-11-09T09:07:50.790Z,6.44
2023-11-09T09:10:22.286Z,6.46
2023-11-09T09:12:51.207Z,6.51
2023-11-09T09:15:19.282Z,6.53
2023-11-09T09:17:48.259Z,6.56
2023-11-09T09:20:21.280Z,6.60
2023-11-09T09:22:56.988Z,6.64
2023-11-09T09:25:24.959Z,6.64
2023-11-09T09:27:52.646Z,6.65
2023-11-09T09:30:22.746Z,6.64
2023-11-09T09:32:52.063Z,6.63
2023-11-09T09:35:29.916Z,6.63
2023-11-09T09:38:05.252Z,6.70
2023-11-09T09:40:40.562Z,6.66
2023-11-09T09:43:15.998Z,6.72
2023-11-09T09:45:43.042Z,6.82
2023-11-09T09:48:13.199Z,6.79
2023-11-09T09:50:40.604Z,6.83
2023-11-09T09:53:11.396Z,6.96
2023-11-09T09:55:41.018Z,6.96
2023-11-09T09:58:09.714Z,6.99
2023-11-09T10:00:38.131Z,7.00
2023-11-09T10:03:08.327Z,7.17
2023-11-09T10:05:37.797Z,7.23
2023-11-09T10:08:16.550Z,7.27
2023-11-09T10:10:48.984Z,7.41
2023-11-09T10:13:17.271Z,7.59
2023-11-09T10:15:45.331Z,7.83
2023-11-09T10:18:13.092Z,8.11
2023-11-09T10:20:41.514Z,8.53
2023-11-09T10:23:15.713Z,9.32
2023-11-09T10:25:43.241Z,10.70
2023-11-09T10:28:14.800Z,10.91
2023-11-09T10:30:45.802Z,10.39
2023-11-09T10:33:14.558Z,10.53
2023-11-09T10:35:42.899Z,11.11
2023-11-09T10:38:13.508Z,10.90
2023-11-09T10:41:14.287Z,11.07
2023-11-09T10:43:39.340Z,10.22
2023-11-09T10:46:10.545Z,9.75
2023-11-09T10:48:42.084Z,9.37
2023-11-09T10:51:11.144Z,9.55
2023-11-09T10:53:39.211Z,9.53
2023-11-09T10:56:12.046Z,9.26
2023-11-09T10:58:42.175Z,9.22
2023-11-09T11:01:12.113Z,9.30
2023-11-09T11:03:45.806Z,9.13
2023-11-09T11:06:18.212Z,9.15
2023-11-09T11:08:52.349Z,8.97
2023-11-09T11:11:25.723Z,9.24
2023-11-09T11:13:58.841Z,9.18
2023-11-09T11:16:43.425Z,9.17
2023-11-09T11:19:34.886Z,9.05
2023-11-09T11:22:20.388Z,8.90
2023-11-09T11:24:55.905Z,8.95
2023-11-09T11:27:56.657Z,8.88
2023-11-09T11:30:34.789Z,8.90
2023-11-09T11:33:05.880Z,8.88
2023-11-09T11:35:45.213Z,9.04
2023-11-09T11:38:14.756Z,9.42
2023-11-09T11:40:42.295Z,9.50
2023-11-09T11:43:09.484Z,9.79
2023-11-09T11:45:39.862Z,9.93
2023-11-09T11:48:13.801Z,10.07
2023-11-09T11:50:41.968Z,10.39
2023-11-09T11:53:13.859Z,11.09
2023-11-09T11:56:12.186Z,11.13
2023-11-09T11:58:53.525Z,11.01
2023-11-09T12:01:32.660Z,10.58
2023-11-09T12:04:04.934Z,10.53
2023-11-09T12:06:39.482Z,10.12
2023-11-09T12:09:12.002Z,10.32
2023-11-09T12:11:59.593Z,10.24
2023-11-09T12:14:26.384Z,10.32
2023-11-09T12:16:53.117Z,9.89
2023-11-09T12:19:20.125Z,9.89
2023-11-09T12:21:48.119Z,10.14
2023-11-09T12:24:24.218Z,9.84
2023-11-09T12:27:10.048Z,9.66
2023-11-09T12:29:39.090Z,9.88
2023-11-09T12:32:07.785Z,9.75
2023-11-09T12:34:38.312Z,9.59
2023-11-09T12:37:12.213Z,9.47
2023-11-09T12:39:40.769Z,9.38
2023-11-09T12:42:07.798Z,9.19
2023-11-09T12:44:36.617Z,9.09
2023-11-09T12:47:09.564Z,8.99
2023-11-09T12:49:36.623Z,9.15
2023-11-09T12:52:06.583Z,9.25
2023-11-09T12:54:37.057Z,9.02
2023-11-09T12:57:06.546Z,9.00
2023-11-09T12:59:35.273Z,9.12
2023-11-09T13:02:06.610Z,9.44
2023-11-09T13:04:43.404Z,9.20
2023-11-09T13:07:13.301Z,9.29
2023-11-09T13:09:42.899Z,9.23
2023-11-09T13:12:30.830Z,9.22
2023-11-09T13:15:10.888Z,9.16
2023-11-09T13:17:50.117Z,9.00
2023-11-09T13:20:37.963Z,8.91
2023-11-09T13:23:07.947Z,8.76
2023-11-09T13:25:44.482Z,8.87
2023-11-09T13:28:17.120Z,8.88
2023-11-09T13:30:53.554Z,8.67
2023-11-09T13:33:39.082Z,8.74
2023-11-09T13:36:18.101Z,8.59
2023-11-09T13:38:51.196Z,8.80
2023-11-09T13:41:19.637Z,8.66
2023-11-09T13:43:57.728Z,8.42
2023-11-09T13:46:29.417Z,8.70
2023-11-09T13:49:11.637Z,8.79
2023-11-09T13:51:38.622Z,8.65
2023-11-09T13:54:26.137Z,8.56
2023-11-09T13:57:13.186Z,8.34
2023-11-09T13:59:44.691Z,8.24
2023-11-09T14:02:18.626Z,8.07
2023-11-09T14:04:53.181Z,7.85
2023-11-09T14:07:33.296Z,7.83
2023-11-09T14:10:14.242Z,7.92
2023-11-09T14:12:51.029Z,7.69
2023-11-09T14:15:24.986Z,7.65
2023-11-09T14:17:53.480Z,7.56
2023-11-09T14:20:31.954Z,7.46
2023-11-09T14:23:06.511Z,7.52
2023-11-09T14:25:34.878Z,7.45
2023-11-09T14:28:03.375Z,7.33
2023-11-09T14:30:35.133Z,7.34
2023-11-09T14:33:03.960Z,7.39
2023-11-09T14:35:33.552Z,7.36
2023-11-09T14:38:05.440Z,7.24
2023-11-09T14:40:37.256Z,7.17
2023-11-09T14:43:10.481Z,7.18
2023-11-09T14:45:43.304Z,7.10
2023-11-09T14:48:14.195Z,7.03
2023-11-09T14:50:42.846Z,7.06
2023-11-09T14:53:13.353Z,7.08
2023-11-09T14:55:43.239Z,7.02
2023-11-09T14:58:15.447Z,7.00
2023-11-09T15:00:46.682Z,6.96
2023-11-09T15:03:20.370Z,6.98
2023-11-09T15:05:51.702Z,6.92
2023-11-09T15:08:19.589Z,6.93
2023-11-09T15:10:48.049Z,6.82
2023-11-09T15:13:14.825Z,6.87
2023-11-09T15:15:41.980Z,6.88
2023-11-09T15:18:11.019Z,6.80
2023-11-09T15:20:39.157Z,6.73
2023-11-09T15:23:07.130Z,6.81
2023-11-09T15:25:34.317Z,6.67
2023-11-09T15:28:02.606Z,6.70
2023-11-09T15:30:31.153Z,6.59
2023-11-09T15:32:59.566Z,6.56
2023-11-09T15:35:29.342Z,6.63
2023-11-09T15:37:58.668Z,6.51
2023-11-09T15:41:09.556Z,6.44
2023-11-09T15:43:13.103Z,6.38
2023-11-09T15:45:41.268Z,6.38
2023-11-09T15:48:09.286Z,6.42
2023-11-09T15:50:37.833Z,6.36
2023-11-09T15:53:05.393Z,6.34
2023-11-09T15:55:32.510Z,6.32
2023-11-09T15:58:03.838Z,6.33
2023-11-09T16:00:32.706Z,6.39
2023-11-09T16:02:59.723Z,6.39
2023-11-09T16:05:26.463Z,6.30
2023-11-09T16:07:54.795Z,6.33
2023-11-09T16:10:25.310Z,6.34
2023-11-09T16:12:53.084Z,6.29
2023-11-09T16:15:22.076Z,6.28
2023-11-09T16:17:50.756Z,6.27
2023-11-09T16:20:18.814Z,6.24
2023-11-09T16:22:46.619Z,6.25
2023-11-09T16:25:23.930Z,6.20
2023-11-09T16:27:51.809Z,6.16
2023-11-09T16:30:31.866Z,6.12
2023-11-09T16:33:02.464Z,6.10
2023-11-09T16:35:31.444Z,6.12
2023-11-09T16:37:59.062Z,6.15
2023-11-09T16:40:26.106Z,6.10
2023-11-09T16:42:53.285Z,6.05
2023-11-09T16:45:21.705Z,6.03
2023-11-09T16:47:49.517Z,5.91
2023-11-09T16:50:17.241Z,5.95
2023-11-09T16:52:44.133Z,6.01
2023-11-09T16:55:12.480Z,5.99
2023-11-09T16:57:46.382Z,5.93
2023-11-09T17:00:16.602Z,5.96
2023-11-09T17:02:43.724Z,6.02
2023-11-09T17:05:14.211Z,5.97
2023-11-09T17:07:44.555Z,5.98
2023-11-09T17:10:13.484Z,5.99
2023-11-09T17:12:40.911Z,6.02
2023-11-09T17:15:10.314Z,5.92
2023-11-09T17:17:44.369Z,5.95
2023-11-09T17:20:13.322Z,5.90
2023-11-09T17:22:44.599Z,5.99
2023-11-09T17:25:12.156Z,5.99
2023-11-09T17:27:38.984Z,5.93
2023-11-09T17:30:11.305Z,6.04
2023-11-09T17:32:40.386Z,5.98
2023-11-09T17:35:08.562Z,5.88
2023-11-09T17:37:35.599Z,5.89
2023-11-09T17:40:04.534Z,5.96
2023-11-09T17:42:31.456Z,5.92
2023-11-09T17:44:58.272Z,5.94
2023-11-09T17:47:25.368Z,5.84
2023-11-09T17:49:53.020Z,5.87
2023-11-09T17:52:20.513Z,5.75
2023-11-09T17:54:47.454Z,5.79
2023-11-09T17:57:14.833Z,5.83
2023-11-09T17:59:44.540Z,5.83
2023-11-09T18:02:12.942Z,5.84
2023-11-09T18:04:41.721Z,5.83
2023-11-09T18:07:09.086Z,5.97
2023-11-09T18:09:36.040Z,5.93
2023-11-09T18:12:03.708Z,5.87
2023-11-09T18:14:30.698Z,5.89
2023-11-09T18:16:58.209Z,5.85
2023-11-09T18:19:25.099Z,5.86
2023-11-09T18:21:54.164Z,5.83
2023-11-09T18:24:21.657Z,5.85
2023-11-09T18:26:48.326Z,5.78
2023-11-09T18:29:15.121Z,5.75
2023-11-09T18:31:41.937Z,5.81
2023-11-09T18:34:11.787Z,5.81
2023-11-09T18:36:38.644Z,5.74
2023-11-09T18:39:05.719Z,5.67
2023-11-09T18:41:32.386Z,5.63
2023-11-09T18:43:59.180Z,5.54
2023-11-09T18:46:26.270Z,5.58
2023-11-09T18:48:52.993Z,5.61
2023-11-09T18:51:19.934Z,5.59
2023-11-09T18:53:48.015Z,5.63
2023-11-09T18:56:16.381Z,5.63
2023-11-09T18:58:43.181Z,5.65
2023-11-09T19:01:12.159Z,5.67
2023-11-09T19:06:09.011Z,5.76
2023-11-09T19:08:37.236Z,5.81
2023-11-09T19:11:11.445Z,5.84
2023-11-09T19:13:38.987Z,5.78
2023-11-09T19:16:07.343Z,5.75
2023-11-09T19:18:35.194Z,5.90
2023-11-09T19:23:31.828Z,5.68
2023-11-09T19:25:59.211Z,5.69
2023-11-09T19:28:28.693Z,5.73
2023-11-09T19:30:59.540Z,5.69
2023-11-09T19:33:27.058Z,5.76
2023-11-09T19:35:54.568Z,5.65
2023-11-09T19:38:21.391Z,5.68
2023-11-09T19:40:48.784Z,5.67
2023-11-09T19:43:15.694Z,5.72
2023-11-09T19:45:44.466Z,5.70
2023-11-09T19:48:13.274Z,5.64
2023-11-09T19:50:41.289Z,5.66
2023-11-09T19:53:08.741Z,5.77
2023-11-09T19:55:37.040Z,5.88
2023-11-09T19:58:05.870Z,5.93
2023-11-09T20:00:36.402Z,5.93
2023-11-09T20:03:07.353Z,5.74
2023-11-09T20:05:38.034Z,5.53
2023-11-09T20:08:04.958Z,5.56
2023-11-09T20:10:32.070Z,5.58
2023-11-09T20:12:59.879Z,5.60
2023-11-09T20:15:28.982Z,5.56
2023-11-09T20:17:56.492Z,5.55
2023-11-09T20:20:23.529Z,5.54
2023-11-09T20:22:50.600Z,5.60
2023-11-09T20:25:18.063Z,5.58
2023-11-09T20:27:46.245Z,5.62
2023-11-09T20:30:15.492Z,5.52
2023-11-09T20:32:43.904Z,5.53
2023-11-09T20:35:11.978Z,5.48
2023-11-09T20:37:41.542Z,5.42
2023-11-09T20:40:09.935Z,5.29
2023-11-09T20:42:40.294Z,5.22
2023-11-09T20:45:09.832Z,5.16
2023-11-09T20:47:39.947Z,5.07
2023-11-09T20:50:15.338Z,4.93
2023-11-09T20:52:48.485Z,5.00
2023-11-09T20:55:22.537Z,4.98
2023-11-09T20:57:50.772Z,4.96
2023-11-09T21:00:22.829Z,4.98
2023-11-09T21:02:53.912Z,5.04
2023-11-09T21:05:22.912Z,4.92
2023-11-09T21:07:50.486Z,4.95
2023-11-09T21:10:18.653Z,5.03
2023-11-09T21:12:47.286Z,4.99
2023-11-09T21:15:14.308Z,4.99
2023-11-09T21:17:44.118Z,4.98
2023-11-09T21:20:13.568Z,5.10
2023-11-09T21:22:40.519Z,5.16
2023-11-09T21:25:08.340Z,5.15
2023-11-09T21:27:35.578Z,5.18
2023-11-09T21:30:02.628Z,5.04
2023-11-09T21:32:29.710Z,4.83
2023-11-09T21:34:56.677Z,4.80
2023-11-09T21:37:24.231Z,4.55
2023-11-09T21:39:50.993Z,4.50
2023-11-09T21:42:20.227Z,4.40
2023-11-09T21:44:49.451Z,4.39
2023-11-09T21:47:20.006Z,4.28
2023-11-09T21:49:46.903Z,4.23
2023-11-09T21:52:13.887Z,4.17
2023-11-09T21:54:43.848Z,4.09
2023-11-09T21:57:14.292Z,4.03
2023-11-09T21:59:41.470Z,3.94
2023-11-09T22:02:08.209Z,3.91
2023-11-09T22:04:38.161Z,3.84
2023-11-09T22:07:05.296Z,3.84
2023-11-09T22:09:34.739Z,3.73
2023-11-09T22:12:02.471Z,3.83
2023-11-09T22:14:29.533Z,3.98
2023-11-09T22:16:58.766Z,4.02
2023-11-09T22:19:25.835Z,4.02
2023-11-09T22:21:53.050Z,4.11
2023-11-09T22:24:19.945Z,4.10
2023-11-09T22:26:49.804Z,4.31
2023-11-09T22:29:16.637Z,4.38
2023-11-09T22:31:43.654Z,4.45
2023-11-09T22:34:10.653Z,4.50
2023-11-09T22:36:37.567Z,4.62
2023-11-09T22:39:06.548Z,4.83
2023-11-09T22:41:33.382Z,4.87
2023-11-09T22:44:00.503Z,4.92
2023-11-09T22:46:27.721Z,4.96
2023-11-09T22:48:54.509Z,4.92
2023-11-09T22:51:21.378Z,4.94
2023-11-09T22:53:48.934Z,4.89
2023-11-09T22:56:15.827Z,4.91
2023-11-09T22:58:42.740Z,4.86
2023-11-09T23:01:09.408Z,4.90
2023-11-09T23:03:36.405Z,4.93
2023-11-09T23:06:03.433Z,4.95
2023-11-09T23:08:35.275Z,4.95
2023-11-09T23:11:02.310Z,4.92
2023-11-09T23:13:29.646Z,4.92
2023-11-09T23:15:56.486Z,4.95
2023-11-09T23:18:23.252Z,4.86
2023-11-09T23:20:50.142Z,4.80
2023-11-09T23:23:16.868Z,4.75
2023-11-09T23:25:43.667Z,4.72
2023-11-09T23:28:12.265Z,4.74
2023-11-09T23:30:39.468Z,4.79
2023-11-09T23:33:06.322Z,5.00
2023-11-09T23:35:33.124Z,5.09
2023-11-09T23:37:59.856Z,5.10
2023-11-09T23:40:27.458Z,5.19
2023-11-09T23:42:54.755Z,5.27
2023-11-09T23:45:22.497Z,5.26
2023-11-09T23:47:49.682Z,5.19
2023-11-09T23:50:16.455Z,5.29
2023-11-09T23:52:45.295Z,5.35
2023-11-09T23:55:12.576Z,5.47
2023-11-09T23:57:39.718Z,5.50
